Time;durP1;ratioP1;P1;durP2;ratioP2;P2;SDS_P1;SDS_P2;PMS_P1;PMS_P2;Temp;Humidity;BMP_temperature;BMP_pressure;BME280_temperature;BME280_humidity;BME280_pressure;Samples;Min_cycle;Max_cycle;Signal;HPM_P1;HPM_P2
2023/09/16 00:00:59;;;;;;;;;20.40;20.40;;;;;19.20;54.40;99593.19;5089060;28;8869;-73
2023/09/16 00:03:36;;;;;;;;;19.60;18.60;;;;;19.15;54.55;99590.75;5088771;28;8959;-72
2023/09/16 00:06:05;;;;;;;;;20.00;19.40;;;;;19.13;54.46;99587.31;5088081;28;8920;-72
2023/09/16 00:08:35;;;;;;;;;19.40;19.40;;;;;19.15;54.55;99584.59;5088843;28;8860;-71
2023/09/16 00:11:04;;;;;;;;;18.60;18.00;;;;;19.16;54.45;99589.84;5088930;28;9645;-71
2023/09/16 00:13:33;;;;;;;;;16.80;16.80;;;;;19.20;54.23;99588.72;5088754;28;8840;-73
2023/09/16 00:16:04;;;;;;;;;23.20;21.40;;;;;19.15;54.49;99581.91;5088537;28;8994;-71
2023/09/16 00:18:34;;;;;;;;;18.20;16.20;;;;;19.20;54.26;99579.88;5088627;28;8843;-72
2023/09/16 00:21:03;;;;;;;;;21.80;20.60;;;;;19.26;54.13;99585.69;5051559;28;8840;-71
2023/09/16 00:23:32;;;;;;;;;18.40;17.80;;;;;19.31;54.20;99586.28;5085149;28;8869;-73
2023/09/16 00:26:03;;;;;;;;;18.00;17.60;;;;;19.37;53.93;99595.75;5107439;28;10001;-72
2023/09/16 00:28:35;;;;;;;;;17.60;17.20;;;;;19.44;53.84;99593.56;5108689;28;8829;-72
2023/09/16 00:31:07;;;;;;;;;19.20;18.20;;;;;19.50;53.91;99596.75;5073954;28;8841;-71
2023/09/16 00:33:36;;;;;;;;;17.40;17.40;;;;;19.54;53.49;99599.28;5106116;28;8965;-70
2023/09/16 00:36:05;;;;;;;;;18.60;17.60;;;;;19.57;53.46;99591.97;5124645;27;8853;-72
2023/09/16 00:38:34;;;;;;;;;19.60;18.20;;;;;19.62;53.37;99594.38;5094546;28;8852;-71
2023/09/16 00:41:03;;;;;;;;;16.20;16.20;;;;;19.63;53.29;99593.41;5087051;28;8863;-71
2023/09/16 00:43:32;;;;;;;;;17.60;16.80;;;;;19.67;53.14;99602.97;5086889;28;8854;-71
2023/09/16 00:46:01;;;;;;;;;20.40;19.40;;;;;19.69;53.13;99595.75;5088155;28;8850;-73
2023/09/16 00:48:31;;;;;;;;;19.00;18.00;;;;;19.71;53.05;99605.38;5052340;28;8939;-71
2023/09/16 00:51:00;;;;;;;;;17.00;17.00;;;;;19.72;52.83;99606.22;5087514;28;8851;-71
2023/09/16 00:53:30;;;;;;;;;14.80;14.40;;;;;19.73;52.89;99613.28;5103724;28;8929;-71
2023/09/16 00:55:58;;;;;;;;;16.40;16.00;;;;;19.73;52.83;99615.94;5035852;28;8882;-71
2023/09/16 00:58:28;;;;;;;;;19.40;17.40;;;;;19.71;53.12;99613.38;5087892;28;8848;-72
2023/09/16 01:00:56;;;;;;;;;20.00;20.00;;;;;19.71;53.11;99610.69;5068797;28;8879;-71
2023/09/16 01:03:26;;;;;;;;;19.60;19.20;;;;;19.71;53.41;99610.69;5052628;28;8851;-71
2023/09/16 01:05:56;;;;;;;;;24.60;23.80;;;;;19.71;53.51;99615.19;5086631;28;8866;-71
2023/09/16 01:08:26;;;;;;;;;20.40;18.20;;;;;19.73;53.54;99617.75;5086940;28;8835;-71
2023/09/16 01:10:55;;;;;;;;;19.60;19.60;;;;;19.74;53.48;99611.47;5087944;28;8876;-72
2023/09/16 01:13:24;;;;;;;;;20.00;20.00;;;;;19.76;53.61;99610.41;5088313;28;8840;-71
2023/09/16 01:16:01;;;;;;;;;19.20;18.80;;;;;19.83;53.56;99610.94;5087978;28;8947;-71
2023/09/16 01:18:38;;;;;;;;;20.60;19.00;;;;;19.85;53.48;99606.38;5087762;28;8924;-70
2023/09/16 01:21:10;;;;;;;;;18.80;18.80;;;;;19.81;53.29;99608.34;5086127;28;8852;-71
2023/09/16 01:23:39;;;;;;;;;19.80;19.80;;;;;19.83;53.32;99613.59;5085650;28;8832;-73
2023/09/16 01:26:09;;;;;;;;;22.80;22.00;;;;;19.86;53.53;99614.28;5100765;28;8841;-71
2023/09/16 01:28:39;;;;;;;;;19.60;18.40;;;;;19.83;53.16;99605.59;5088897;28;8915;-71
2023/09/16 01:31:08;;;;;;;;;23.40;21.00;;;;;19.85;53.15;99601.03;5108620;28;8933;-72
2023/09/16 01:33:45;;;;;;;;;20.80;19.80;;;;;19.86;53.37;99606.28;5110630;28;8879;-72
2023/09/16 01:36:20;;;;;;;;;25.40;23.00;;;;;19.84;53.25;99608.19;5096350;28;8831;-71
2023/09/16 01:38:52;;;;;;;;;21.60;20.40;;;;;19.77;53.07;99613.97;5099088;28;8937;-72
2023/09/16 01:41:23;;;;;;;;;20.40;19.40;;;;;19.66;53.66;99618.09;5090288;28;8857;-70
2023/09/16 01:43:53;;;;;;;;;18.40;18.40;;;;;19.62;53.60;99608.56;5090139;28;8841;-72
2023/09/16 01:46:22;;;;;;;;;17.80;17.20;;;;;19.61;53.31;99604.19;5091373;28;8855;-73
2023/09/16 01:48:51;;;;;;;;;12.80;11.80;;;;;19.54;53.75;99610.81;5091858;28;8847;-73
2023/09/16 01:51:20;;;;;;;;;20.40;19.80;;;;;19.52;53.80;99607.38;5091285;28;8860;-72
2023/09/16 01:53:49;;;;;;;;;16.60;15.40;;;;;19.49;53.77;99604.84;5090322;28;8914;-71
2023/09/16 01:56:17;;;;;;;;;21.40;20.20;;;;;19.51;53.93;99606.50;5105755;28;8962;-72
2023/09/16 01:58:49;;;;;;;;;19.60;17.40;;;;;19.49;54.00;99610.19;5089944;28;8855;-73
2023/09/16 02:01:18;;;;;;;;;17.40;17.40;;;;;19.47;54.19;99612.06;5106595;28;8840;-71
2023/09/16 02:03:47;;;;;;;;;18.80;18.80;;;;;19.42;54.31;99607.00;5089831;28;8827;-71
2023/09/16 02:06:16;;;;;;;;;19.80;19.80;;;;;19.39;54.40;99611.66;5106683;28;8859;-72
2023/09/16 02:08:45;;;;;;;;;22.80;21.00;;;;;19.37;54.62;99610.91;5091123;28;8966;-71
2023/09/16 02:11:14;;;;;;;;;25.20;20.80;;;;;19.32;54.73;99609.31;5089308;28;8867;-71
2023/09/16 02:13:43;;;;;;;;;21.60;20.60;;;;;19.22;54.71;99604.63;5094351;27;8852;-72
2023/09/16 02:16:13;;;;;;;;;20.00;19.40;;;;;19.22;55.01;99604.63;5091026;28;9596;-72
2023/09/16 02:18:43;;;;;;;;;19.00;19.00;;;;;19.15;54.98;99605.91;5089465;28;8872;-72
2023/09/16 02:21:12;;;;;;;;;17.80;17.00;;;;;19.12;55.13;99604.25;5089594;28;8974;-72
2023/09/16 02:23:41;;;;;;;;;20.20;19.20;;;;;19.11;55.49;99603.38;5106232;28;8859;-72
2023/09/16 02:26:09;;;;;;;;;23.00;20.60;;;;;19.11;55.51;99600.72;5090653;28;8883;-72
2023/09/16 02:28:40;;;;;;;;;22.00;21.40;;;;;19.07;55.29;99604.50;5064586;28;8865;-71
2023/09/16 02:31:09;;;;;;;;;21.40;18.80;;;;;19.09;55.52;99613.28;5060229;28;8875;-71
2023/09/16 02:33:40;;;;;;;;;21.40;19.20;;;;;19.10;55.46;99609.69;5051195;28;8875;-72
2023/09/16 02:36:09;;;;;;;;;18.40;17.40;;;;;19.12;55.42;99606.91;5067669;28;8876;-71
2023/09/16 02:38:37;;;;;;;;;22.80;21.60;;;;;19.13;55.37;99608.63;5034730;28;8855;-73
2023/09/16 02:41:06;;;;;;;;;19.40;18.40;;;;;19.11;55.47;99603.38;5018491;28;8856;-71
2023/09/16 02:43:37;;;;;;;;;20.80;20.40;;;;;19.13;55.31;99603.31;5049896;28;8851;-72
2023/09/16 02:46:06;;;;;;;;;20.80;20.80;;;;;19.15;55.45;99600.56;5050801;28;8978;-71
2023/09/16 02:48:35;;;;;;;;;22.40;21.40;;;;;19.15;55.44;99608.56;5049399;28;8824;-72
2023/09/16 02:51:09;;;;;;;;;21.20;21.00;;;;;19.13;55.30;99606.81;5084548;28;9644;-71
2023/09/16 02:53:38;;;;;;;;;20.40;20.40;;;;;19.10;55.28;99609.69;5067243;28;8937;-72
2023/09/16 02:56:08;;;;;;;;;21.40;20.40;;;;;19.06;55.42;99605.44;5067655;28;8859;-72
2023/09/16 02:58:37;;;;;;;;;23.00;21.80;;;;;19.05;55.66;99605.56;5050427;28;8836;-72
2023/09/16 03:01:09;;;;;;;;;20.80;19.80;;;;;19.03;55.41;99608.28;5109051;28;8892;-71
2023/09/16 03:03:43;;;;;;;;;17.60;17.60;;;;;19.00;55.91;99608.44;5075257;28;8848;-73
2023/09/16 03:06:15;;;;;;;;;20.00;20.00;;;;;18.92;56.20;99605.38;5108029;28;8821;-72
2023/09/16 03:08:44;;;;;;;;;24.00;24.00;;;;;18.86;56.40;99616.34;5093887;28;8889;-71
2023/09/16 03:11:13;;;;;;;;;24.40;21.60;;;;;18.79;56.46;99610.50;5105434;28;8922;-70
2023/09/16 03:13:44;;;;;;;;;23.80;23.00;;;;;18.69;56.71;99619.91;5088487;28;8863;-72
2023/09/16 03:16:15;;;;;;;;;22.80;21.80;;;;;18.29;58.36;99609.56;5105427;28;8851;-70
2023/09/16 03:18:47;;;;;;;;;26.60;25.00;;;;;18.43;57.81;99613.28;5105401;28;8924;-70
2023/09/16 03:21:20;;;;;;;;;24.00;23.40;;;;;18.46;57.81;99613.09;5105067;28;8855;-73
2023/09/16 03:23:50;;;;;;;;;19.60;19.60;;;;;18.41;57.86;99612.50;5104525;27;8878;-71
2023/09/16 03:26:20;;;;;;;;;24.00;21.60;;;;;18.31;58.31;99610.31;5088282;28;8867;-71
2023/09/16 03:28:54;;;;;;;;;23.00;22.20;;;;;18.28;58.75;99613.13;5088522;28;8866;-71
2023/09/16 03:31:27;;;;;;;;;26.60;24.80;;;;;18.13;59.34;99617.44;5088233;28;8898;-71
2023/09/16 03:34:00;;;;;;;;;23.40;22.60;;;;;18.01;59.72;99612.72;5088079;28;8851;-71
2023/09/16 03:36:31;;;;;;;;;24.60;24.60;;;;;17.74;61.20;99612.31;5104994;28;8851;-70
2023/09/16 03:39:00;;;;;;;;;22.20;22.20;;;;;17.88;60.56;99614.28;5087079;27;9687;-70
2023/09/16 03:41:29;;;;;;;;;33.50;31.75;;;;;17.80;60.94;99616.47;5088169;28;8847;-72
2023/09/16 03:44:01;;;;;;;;;27.20;26.60;;;;;17.78;60.77;99617.41;5054830;28;8972;-70
2023/09/16 03:46:31;;;;;;;;;24.80;23.40;;;;;17.82;60.55;99618.13;5057647;28;8869;-72
2023/09/16 03:49:03;;;;;;;;;23.40;19.80;;;;;17.87;60.38;99623.19;5070660;28;9637;-71
2023/09/16 03:51:37;;;;;;;;;22.80;21.80;;;;;17.88;60.40;99625.78;5104838;28;8871;-72
2023/09/16 03:54:08;;;;;;;;;26.40;21.80;;;;;17.74;60.95;99617.63;5087700;28;8844;-70
2023/09/16 03:56:37;;;;;;;;;25.00;23.60;;;;;17.78;60.81;99621.88;5104028;27;8828;-72
2023/09/16 03:59:07;;;;;;;;;20.80;20.20;;;;;17.92;60.22;99626.50;5087755;28;8843;-71
2023/09/16 04:01:36;;;;;;;;;24.20;22.40;;;;;18.00;60.04;99629.63;5104557;28;8952;-72
2023/09/16 04:04:07;;;;;;;;;27.20;26.00;;;;;18.07;59.85;99632.88;5104835;28;8840;-71
2023/09/16 04:06:38;;;;;;;;;28.20;27.60;;;;;18.14;59.57;99639.63;5088649;28;8872;-70
2023/09/16 04:09:07;;;;;;;;;65.50;52.75;;;;;18.14;59.72;99643.13;5087389;28;8867;-72
2023/09/16 04:11:36;;;;;;;;;45.50;38.25;;;;;18.20;59.44;99639.28;5088061;27;8877;-72
2023/09/16 04:14:05;;;;;;;;;31.00;30.20;;;;;18.21;59.37;99640.16;5087475;28;8852;-71
2023/09/16 04:16:34;;;;;;;;;26.80;26.00;;;;;18.23;59.56;99641.81;5089563;28;8844;-71
2023/09/16 04:19:03;;;;;;;;;28.00;28.00;;;;;18.26;59.66;99646.94;5104454;28;9585;-73
2023/09/16 04:21:32;;;;;;;;;27.20;25.80;;;;;18.22;60.06;99648.06;5104296;28;8855;-71
2023/09/16 04:24:03;;;;;;;;;30.20;28.60;;;;;18.26;60.23;99649.63;5104133;28;8871;-72
2023/09/16 04:26:33;;;;;;;;;25.40;25.20;;;;;18.26;60.52;99648.75;5103587;28;8836;-71
2023/09/16 04:29:02;;;;;;;;;25.60;23.40;;;;;18.29;60.18;99652.13;5102903;28;8828;-72
2023/09/16 04:31:31;;;;;;;;;28.60;25.20;;;;;18.24;60.71;99656.81;5053555;28;8847;-71
2023/09/16 04:34:00;;;;;;;;;26.80;26.80;;;;;18.27;60.32;99650.47;5088539;28;8856;-71
2023/09/16 04:36:29;;;;;;;;;41.00;36.50;;;;;18.35;60.26;99651.81;5103861;28;9696;-71
2023/09/16 04:38:58;;;;;;;;;40.25;34.00;;;;;18.41;60.07;99649.78;5087007;28;8855;-72
2023/09/16 04:41:28;;;;;;;;;28.40;26.60;;;;;18.44;60.09;99652.25;5103977;28;8925;-71
2023/09/16 04:43:57;;;;;;;;;33.40;27.80;;;;;18.52;59.57;99658.06;5103873;28;9620;-71
2023/09/16 04:46:26;;;;;;;;;26.20;25.00;;;;;18.50;59.76;99658.13;5087539;28;8843;-72
2023/09/16 04:48:58;;;;;;;;;27.60;23.80;;;;;18.62;59.32;99656.63;5088275;28;8824;-70
2023/09/16 04:51:28;;;;;;;;;27.40;23.40;;;;;18.67;59.21;99653.75;5051999;28;9005;-70
2023/09/16 04:53:57;;;;;;;;;28.20;25.60;;;;;18.66;59.36;99652.84;5103601;28;8852;-72
2023/09/16 04:56:28;;;;;;;;;23.80;23.80;;;;;18.75;58.81;99659.50;5103750;28;8844;-71
2023/09/16 04:58:59;;;;;;;;;22.20;22.20;;;;;18.81;58.58;99650.38;5104103;28;8823;-71
2023/09/16 05:01:29;;;;;;;;;21.60;21.00;;;;;18.91;58.43;99656.91;5106051;27;8833;-73
2023/09/16 05:03:59;;;;;;;;;23.20;21.80;;;;;19.00;58.10;99658.22;5107260;28;8849;-73
2023/09/16 05:06:31;;;;;;;;;23.60;22.40;;;;;19.07;57.92;99657.81;5108873;28;9576;-71
2023/09/16 05:09:00;;;;;;;;;29.20;28.00;;;;;19.13;57.80;99656.59;5111420;28;8856;-71
2023/09/16 05:11:30;;;;;;;;;28.00;27.00;;;;;19.23;57.99;99656.94;5111243;28;8875;-71
2023/09/16 05:14:02;;;;;;;;;31.00;27.80;;;;;19.15;57.84;99656.53;5107554;28;8852;-71
2023/09/16 05:16:32;;;;;;;;;30.80;28.80;;;;;19.20;57.55;99659.81;5068727;28;9660;-72
2023/09/16 05:19:06;;;;;;;;;30.60;28.60;;;;;19.26;57.52;99662.97;5093519;28;8884;-72
2023/09/16 05:21:36;;;;;;;;;21.60;21.40;;;;;19.36;57.41;99662.47;5072456;28;8908;-71
2023/09/16 05:24:06;;;;;;;;;22.40;22.40;;;;;19.43;57.02;99661.19;5106139;28;8854;-72
2023/09/16 05:26:37;;;;;;;;;24.60;22.60;;;;;19.54;56.66;99668.59;5072398;28;8873;-71
2023/09/16 05:29:07;;;;;;;;;26.60;25.60;;;;;19.60;56.48;99666.44;5072250;28;9646;-71
2023/09/16 05:31:37;;;;;;;;;26.60;23.20;;;;;19.65;55.90;99669.72;5072109;28;8854;-71
2023/09/16 05:34:06;;;;;;;;;23.60;23.60;;;;;19.62;56.35;99661.88;5071988;28;8837;-72
2023/09/16 05:36:35;;;;;;;;;25.40;21.40;;;;;19.58;56.34;99667.50;5087458;28;8896;-73
2023/09/16 05:39:05;;;;;;;;;22.60;21.40;;;;;19.52;56.56;99660.72;5072144;28;8878;-72
2023/09/16 05:41:35;;;;;;;;;24.80;23.80;;;;;19.44;56.50;99665.56;5088771;28;8919;-72
2023/09/16 05:44:05;;;;;;;;;23.00;21.80;;;;;19.44;56.47;99654.88;5055482;28;8889;-72
2023/09/16 05:46:34;;;;;;;;;21.40;19.80;;;;;19.40;56.66;99669.34;5055284;28;8872;-71
2023/09/16 05:49:07;;;;;;;;;24.00;24.00;;;;;19.27;56.81;99658.50;5110800;28;8980;-71
2023/09/16 05:51:37;;;;;;;;;21.80;21.80;;;;;19.35;56.57;99660.72;5107535;28;8836;-75
2023/09/16 05:54:06;;;;;;;;;22.20;21.20;;;;;19.36;56.68;99668.66;5106866;28;8864;-75
2023/09/16 05:56:38;;;;;;;;;20.20;19.40;;;;;19.39;56.73;99665.81;5072427;28;9597;-74
2023/09/16 05:59:09;;;;;;;;;26.00;25.00;;;;;19.43;56.40;99663.84;5109715;28;8833;-75
2023/09/16 06:01:37;;;;;;;;;21.40;21.40;;;;;19.43;56.64;99662.03;5090815;28;8893;-74
2023/09/16 06:04:08;;;;;;;;;23.00;21.20;;;;;19.47;56.33;99670.72;5106894;28;8855;-74
2023/09/16 06:06:37;;;;;;;;;23.80;21.60;;;;;19.40;56.46;99662.19;5089710;28;8986;-74
2023/09/16 06:09:06;;;;;;;;;18.80;18.80;;;;;19.33;56.49;99668.84;5118412;27;8853;-74
2023/09/16 06:11:36;;;;;;;;;18.80;16.80;;;;;19.37;56.43;99669.53;5111572;28;8864;-75
2023/09/16 06:14:05;;;;;;;;;21.20;20.20;;;;;19.43;56.39;99674.50;5103253;28;8851;-76
2023/09/16 06:16:36;;;;;;;;;21.00;20.20;;;;;19.45;56.14;99668.13;5089730;28;8989;-75
2023/09/16 06:19:05;;;;;;;;;22.20;21.00;;;;;19.52;56.13;99676.69;5072040;28;8875;-75
2023/09/16 06:21:34;;;;;;;;;24.00;23.80;;;;;19.65;55.83;99672.41;5055428;28;8836;-75
2023/09/16 06:24:04;;;;;;;;;20.00;20.00;;;;;19.74;55.48;99679.00;5106713;27;8836;-75
2023/09/16 06:26:33;;;;;;;;;23.80;22.40;;;;;19.88;55.38;99678.22;5097518;28;8839;-74
2023/09/16 06:29:04;;;;;;;;;26.40;25.80;;;;;20.01;55.20;99675.69;5107395;28;8865;-74
2023/09/16 06:31:32;;;;;;;;;26.00;24.20;;;;;20.06;54.68;99679.78;5109631;28;8979;-76
2023/09/16 06:34:02;;;;;;;;;22.80;22.80;;;;;20.13;54.36;99677.66;5109451;28;8853;-76
2023/09/16 06:36:32;;;;;;;;;21.60;21.60;;;;;20.27;54.19;99674.19;5062095;28;8980;-75
2023/09/16 06:39:07;;;;;;;;;21.20;19.80;;;;;20.26;53.85;99673.34;5113645;28;8825;-74
2023/09/16 06:41:36;;;;;;;;;21.20;20.60;;;;;20.38;53.43;99676.22;5048403;28;8857;-73
2023/09/16 06:44:14;;;;;;;;;19.80;18.60;;;;;20.37;53.28;99666.47;5122973;27;8881;-74
2023/09/16 06:46:43;;;;;;;;;17.80;17.80;;;;;20.48;52.84;99674.69;5074643;28;8849;-74
2023/09/16 06:49:13;;;;;;;;;18.40;18.40;;;;;20.58;52.77;99680.38;5095641;28;8857;-75
2023/09/16 06:51:42;;;;;;;;;17.60;17.60;;;;;20.53;52.28;99683.31;5110716;28;8995;-75
2023/09/16 06:54:11;;;;;;;;;16.80;16.40;;;;;20.60;51.80;99687.34;5109981;28;8876;-74
2023/09/16 06:56:39;;;;;;;;;20.60;19.40;;;;;20.71;52.07;99680.47;5053670;28;10043;-74
2023/09/16 06:59:08;;;;;;;;;18.00;17.40;;;;;20.82;51.92;99680.66;5102607;28;8903;-75
2023/09/16 07:01:50;;;;;;;;;16.00;14.20;;;;;20.88;51.66;99683.81;5089268;28;9467;-75
2023/09/16 07:04:19;;;;;;;;;16.60;16.40;;;;;20.93;51.35;99694.25;5105545;28;8859;-76
2023/09/16 07:06:48;;;;;;;;;16.00;15.00;;;;;21.03;51.03;99682.06;5089793;28;8836;-75
2023/09/16 07:09:17;;;;;;;;;16.00;16.00;;;;;21.09;51.30;99688.84;5108011;28;8837;-74
2023/09/16 07:11:46;;;;;;;;;16.00;14.00;;;;;21.16;50.38;99695.50;5097406;28;10084;-75
2023/09/16 07:14:15;;;;;;;;;12.60;12.60;;;;;21.25;50.49;99680.69;5087332;27;8879;-75
2023/09/16 07:16:44;;;;;;;;;13.00;13.00;;;;;21.37;50.00;99679.91;5061600;28;8890;-76
2023/09/16 07:19:15;;;;;;;;;13.00;12.20;;;;;21.50;49.64;99685.31;5089718;28;8839;-76
2023/09/16 07:21:44;;;;;;;;;14.60;13.60;;;;;21.46;49.57;99686.47;5089897;28;8856;-79
2023/09/16 07:24:14;;;;;;;;;15.20;15.20;;;;;21.61;48.90;99680.16;5089262;28;8871;-73
2023/09/16 07:26:44;;;;;;;;;12.80;12.20;;;;;21.84;48.55;99685.81;5056178;28;8961;-72
2023/09/16 07:29:13;;;;;;;;;12.80;12.80;;;;;22.03;47.70;99685.47;5047301;28;9563;-78
2023/09/16 07:31:41;;;;;;;;;12.40;11.60;;;;;22.15;47.06;99690.00;5018421;28;8866;-78
2023/09/16 07:34:10;;;;;;;;;13.60;13.60;;;;;22.32;46.57;99690.75;5065284;28;8862;-77
2023/09/16 07:36:41;;;;;;;;;9.60;9.00;;;;;22.44;46.37;99689.03;5078515;28;8873;-78
2023/09/16 07:39:10;;;;;;;;;16.20;15.20;;;;;22.63;45.79;99691.31;5033960;28;8838;-79
2023/09/16 07:41:39;;;;;;;;;19.40;18.60;;;;;22.75;45.50;99694.00;5033376;28;8901;-78
2023/09/16 07:44:08;;;;;;;;;17.00;15.60;;;;;22.84;45.28;99694.31;5067483;28;9611;-77
2023/09/16 07:46:37;;;;;;;;;12.40;12.40;;;;;22.89;45.36;99700.25;5065681;28;8870;-78
2023/09/16 07:49:06;;;;;;;;;13.00;13.00;;;;;22.94;45.11;99696.28;5057766;28;8854;-75
2023/09/16 07:51:39;;;;;;;;;13.60;13.60;;;;;22.97;44.59;99704.09;5065858;28;8850;-75
2023/09/16 07:54:10;;;;;;;;;12.00;11.40;;;;;23.04;44.09;99703.69;5017846;28;8972;-76
2023/09/16 07:56:38;;;;;;;;;12.60;11.20;;;;;22.94;44.37;99701.66;5017375;28;8854;-76
2023/09/16 07:59:08;;;;;;;;;14.00;12.40;;;;;22.99;44.04;99709.34;5097105;28;8867;-76
2023/09/16 08:01:36;;;;;;;;;12.00;12.00;;;;;22.97;44.42;99704.09;5089399;28;8856;-78
2023/09/16 08:04:06;;;;;;;;;16.20;16.20;;;;;23.08;44.45;99707.84;5086525;28;8853;-76
2023/09/16 08:06:35;;;;;;;;;10.60;9.40;;;;;23.09;43.99;99712.22;5091907;28;8854;-75
2023/09/16 08:09:04;;;;;;;;;13.00;13.00;;;;;23.15;43.86;99704.63;5091463;28;8854;-77
2023/09/16 08:11:35;;;;;;;;;13.40;13.40;;;;;23.22;43.91;99710.38;5086814;28;9034;-75
2023/09/16 08:14:04;;;;;;;;;12.80;12.60;;;;;23.31;43.55;99709.72;5086182;28;8869;-76
2023/09/16 08:16:32;;;;;;;;;13.00;12.00;;;;;23.37;42.81;99709.31;5085824;28;8912;-78
2023/09/16 08:19:02;;;;;;;;;15.00;14.80;;;;;23.47;43.05;99714.00;5088491;28;8873;-78
2023/09/16 08:21:30;;;;;;;;;15.20;15.20;;;;;23.49;43.09;99712.09;5090070;28;8873;-75
2023/09/16 08:23:59;;;;;;;;;17.00;14.80;;;;;23.43;43.28;99715.19;5070402;28;8853;-75
2023/09/16 08:26:29;;;;;;;;;13.80;13.80;;;;;23.55;43.06;99717.88;5085971;28;8915;-75
2023/09/16 08:28:59;;;;;;;;;19.00;18.20;;;;;23.54;42.88;99716.16;5085535;28;8926;-76
2023/09/16 08:31:28;;;;;;;;;19.80;18.40;;;;;23.55;43.23;99719.72;5085559;28;8846;-75
2023/09/16 08:34:01;;;;;;;;;18.80;18.00;;;;;23.54;43.74;99726.88;5000428;28;8851;-76
2023/09/16 08:36:30;;;;;;;;;21.20;20.60;;;;;23.65;43.85;99730.63;5096209;27;8831;-74
2023/09/16 08:39:00;;;;;;;;;18.20;17.00;;;;;23.81;43.00;99719.63;5093500;27;8886;-76
2023/09/16 08:41:38;;;;;;;;;15.20;15.20;;;;;23.91;42.62;99726.88;5072184;28;8956;-74
2023/09/16 08:44:10;;;;;;;;;12.00;12.00;;;;;23.92;41.86;99725.94;5098947;27;8874;-75
2023/09/16 08:46:46;;;;;;;;;14.60;14.40;;;;;23.95;42.39;99722.16;5068368;28;8976;-73
2023/09/16 08:49:19;;;;;;;;;16.60;16.20;;;;;23.96;41.89;99716.66;5092514;27;8871;-75
2023/09/16 08:51:49;;;;;;;;;16.80;16.80;;;;;23.92;41.70;99717.88;5087464;28;8909;-75
2023/09/16 08:54:23;;;;;;;;;10.00;10.00;;;;;24.08;40.99;99732.84;5087791;28;8844;-74
2023/09/16 08:56:52;;;;;;;;;16.00;15.20;;;;;24.06;41.72;99724.03;5087722;28;8986;-74
2023/09/16 08:59:22;;;;;;;;;14.00;14.00;;;;;24.08;41.32;99722.94;5069607;28;8863;-75
2023/09/16 09:01:51;;;;;;;;;10.40;10.20;;;;;24.10;40.05;99721.00;5091639;28;8886;-74
2023/09/16 09:04:20;;;;;;;;;11.00;10.60;;;;;24.08;40.60;99722.94;5090064;28;8860;-73
2023/09/16 09:06:51;;;;;;;;;15.00;14.60;;;;;24.11;40.71;99720.03;5087747;28;8879;-73
2023/09/16 09:09:20;;;;;;;;;11.20;11.20;;;;;24.16;40.73;99720.56;5068984;28;9684;-74
2023/09/16 09:11:49;;;;;;;;;9.80;9.80;;;;;24.19;40.60;99711.44;5087609;28;8867;-75
2023/09/16 09:14:21;;;;;;;;;12.60;12.00;;;;;24.22;40.44;99711.19;5087472;28;8859;-73
2023/09/16 09:16:52;;;;;;;;;11.40;11.00;;;;;24.12;41.40;99711.00;5087913;28;8952;-73
2023/09/16 09:19:22;;;;;;;;;13.60;12.80;;;;;24.16;41.52;99722.41;5090778;28;8849;-74
2023/09/16 09:21:53;;;;;;;;;16.20;15.00;;;;;24.25;41.60;99721.72;5107973;28;8849;-74
2023/09/16 09:24:22;;;;;;;;;15.60;15.20;;;;;24.40;40.97;99721.53;5108287;28;8849;-74
2023/09/16 09:26:51;;;;;;;;;15.40;14.40;;;;;24.41;40.52;99718.69;5107925;28;8869;-74
2023/09/16 09:29:21;;;;;;;;;15.00;13.60;;;;;24.51;40.33;99717.03;5101849;28;8840;-74
2023/09/16 09:31:52;;;;;;;;;12.60;12.20;;;;;24.59;40.07;99720.97;5087994;28;8859;-76
2023/09/16 09:34:21;;;;;;;;;13.60;13.60;;;;;24.58;39.91;99721.94;5034943;27;8876;-73
2023/09/16 09:36:50;;;;;;;;;12.80;12.40;;;;;24.72;40.01;99719.03;5107607;28;9590;-73
2023/09/16 09:39:19;;;;;;;;;13.40;13.40;;;;;24.80;39.77;99715.78;5094505;28;8848;-75
2023/09/16 09:41:49;;;;;;;;;13.80;13.60;;;;;24.85;39.63;99719.84;5087894;28;8863;-74
2023/09/16 09:44:18;;;;;;;;;16.00;16.00;;;;;24.97;39.79;99730.59;5089703;28;8831;-74
2023/09/16 09:46:47;;;;;;;;;16.20;13.60;;;;;25.11;38.42;99725.84;5107903;28;8951;-73
2023/09/16 09:49:19;;;;;;;;;16.60;16.20;;;;;25.23;38.91;99728.53;5107637;28;8849;-74
2023/09/16 09:51:48;;;;;;;;;17.80;17.40;;;;;25.48;38.98;99724.75;5086958;28;9002;-73
2023/09/16 09:54:18;;;;;;;;;15.00;15.00;;;;;25.35;38.69;99718.66;5106621;28;8832;-74
2023/09/16 09:56:47;;;;;;;;;13.80;13.80;;;;;25.45;38.51;99733.91;5091118;28;8847;-72
2023/09/16 09:59:17;;;;;;;;;17.80;17.20;;;;;25.43;39.23;99724.28;5106839;28;8858;-73
2023/09/16 10:01:46;;;;;;;;;20.20;18.40;;;;;25.25;39.68;99729.28;5090843;28;8855;-72
2023/09/16 10:04:16;;;;;;;;;19.20;17.40;;;;;25.22;39.95;99727.66;5072026;28;9717;-73
2023/09/16 10:06:46;;;;;;;;;20.20;19.20;;;;;25.21;40.47;99728.66;5100424;28;8861;-73
2023/09/16 10:09:15;;;;;;;;;20.40;18.80;;;;;25.40;39.93;99725.38;5111169;28;9646;-73
2023/09/16 10:11:44;;;;;;;;;27.00;26.75;;;;;25.05;40.57;99728.16;5106153;28;8847;-74
2023/09/16 10:14:14;;;;;;;;;26.40;22.40;;;;;25.24;39.85;99722.16;5106500;28;8852;-74
2023/09/16 10:16:44;;;;;;;;;21.60;19.40;;;;;25.31;39.97;99713.47;5089366;28;8844;-73
2023/09/16 10:19:13;;;;;;;;;20.80;19.40;;;;;25.30;39.61;99719.84;5090658;28;8831;-73
2023/09/16 10:21:43;;;;;;;;;19.00;18.40;;;;;25.20;39.89;99718.88;5091829;27;8965;-73
2023/09/16 10:24:14;;;;;;;;;17.20;16.80;;;;;25.18;40.00;99723.50;5094959;28;9695;-72
2023/09/16 10:26:43;;;;;;;;;16.80;15.80;;;;;25.26;40.44;99723.75;5120882;27;8954;-72
2023/09/16 10:29:15;;;;;;;;;15.20;15.20;;;;;25.20;39.89;99726.94;5115338;27;8891;-74
2023/09/16 10:31:44;;;;;;;;;17.00;17.00;;;;;25.29;39.79;99733.44;5061323;28;8836;-74
2023/09/16 10:34:14;;;;;;;;;15.40;15.20;;;;;25.19;40.13;99719.84;5090176;27;8820;-72
2023/09/16 10:36:44;;;;;;;;;17.20;17.20;;;;;25.34;39.84;99708.84;5065527;28;8971;-73
2023/09/16 10:39:15;;;;;;;;;19.20;18.20;;;;;25.43;39.76;99710.81;5111938;27;8834;-71
2023/09/16 10:41:45;;;;;;;;;17.00;15.00;;;;;25.45;39.99;99707.00;5090971;27;8852;-70
2023/09/16 10:44:17;;;;;;;;;17.60;17.40;;;;;25.20;40.01;99713.47;5083101;27;9591;-71
2023/09/16 10:46:47;;;;;;;;;17.40;17.20;;;;;25.26;39.59;99704.06;5094769;27;8854;-72
2023/09/16 10:49:16;;;;;;;;;15.20;15.20;;;;;25.24;39.30;99698.81;5090189;28;8855;-71
2023/09/16 10:51:45;;;;;;;;;15.40;14.60;;;;;25.41;39.30;99707.41;5089736;27;8952;-72
2023/09/16 10:54:24;;;;;;;;;15.40;14.80;;;;;25.61;38.20;99697.72;5070453;28;8848;-71
2023/09/16 10:56:57;;;;;;;;;11.00;11.00;;;;;25.60;37.77;99706.75;5054875;28;8857;-71
2023/09/16 10:59:32;;;;;;;;;12.20;11.80;;;;;25.74;38.16;99690.34;5088482;27;8871;-71
2023/09/16 11:02:10;;;;;;;;;17.00;15.60;;;;;25.95;37.78;99686.88;5093083;28;8961;-70
2023/09/16 11:04:40;;;;;;;;;19.20;16.80;;;;;25.90;38.69;99689.94;5073019;27;8860;-70
2023/09/16 11:07:09;;;;;;;;;17.60;17.60;;;;;25.83;38.62;99694.09;5097230;27;8866;-71
2023/09/16 11:09:41;;;;;;;;;16.40;15.20;;;;;25.84;37.88;99682.34;5081880;28;9609;-70
2023/09/16 11:12:11;;;;;;;;;18.80;18.00;;;;;25.61;38.70;99677.03;5097412;27;9045;-70
2023/09/16 11:14:40;;;;;;;;;17.20;17.20;;;;;25.86;37.46;99681.22;5088550;28;9583;-71
2023/09/16 11:17:14;;;;;;;;;14.00;14.00;;;;;25.95;37.67;99671.56;5098704;27;8832;-69
2023/09/16 11:19:43;;;;;;;;;13.80;12.80;;;;;25.96;37.15;99673.25;5092706;28;8840;-72
2023/09/16 11:22:14;;;;;;;;;12.80;12.80;;;;;26.17;37.00;99678.66;5091561;27;8982;-71
2023/09/16 11:24:44;;;;;;;;;13.80;13.80;;;;;26.03;37.39;99671.75;5069291;28;8847;-72
2023/09/16 11:27:18;;;;;;;;;13.60;13.00;;;;;26.27;36.24;99662.59;5086406;27;8926;-73
2023/09/16 11:29:52;;;;;;;;;14.60;14.60;;;;;26.59;36.09;99672.47;5098552;28;8856;-72
2023/09/16 11:32:21;;;;;;;;;15.80;15.80;;;;;26.66;35.54;99666.44;5103914;28;8865;-70
2023/09/16 11:34:59;;;;;;;;;16.20;15.80;;;;;26.72;35.51;99654.28;5108839;28;8844;-81
2023/09/16 11:37:31;;;;;;;;;14.00;14.00;;;;;26.67;35.32;99656.50;5080875;28;8841;-76